createdAt,value
2022-10-15T00:00:18.201Z,15.80
2022-10-15T00:02:44.901Z,15.80
2022-10-15T00:05:11.663Z,15.80
2022-10-15T00:07:38.535Z,15.80
2022-10-15T00:10:05.675Z,15.80
2022-10-15T00:12:32.535Z,15.80
2022-10-15T00:14:59.248Z,15.80
2022-10-15T00:17:26.337Z,15.70
2022-10-15T00:19:53.088Z,15.70
2022-10-15T00:22:20.070Z,15.70
2022-10-15T00:24:47.080Z,15.70
2022-10-15T00:27:13.933Z,15.70
2022-10-15T00:29:40.672Z,15.70
2022-10-15T00:32:07.490Z,15.70
2022-10-15T00:34:34.459Z,15.70
2022-10-15T00:37:01.141Z,15.70
2022-10-15T00:39:28.024Z,15.60
2022-10-15T00:41:54.696Z,15.70
2022-10-15T00:44:21.334Z,15.60
2022-10-15T00:46:52.047Z,15.60
2022-10-15T00:49:26.289Z,15.60
2022-10-15T00:52:06.502Z,15.50
2022-10-15T00:54:37.532Z,15.50
2022-10-15T00:57:05.925Z,15.50
2022-10-15T00:59:36.790Z,15.50
2022-10-15T01:02:03.768Z,15.50
2022-10-15T01:04:31.215Z,15.50
2022-10-15T01:06:58.237Z,15.40
2022-10-15T01:09:25.325Z,15.40
2022-10-15T01:11:54.350Z,15.40
2022-10-15T01:14:42.198Z,15.30
2022-10-15T01:17:30.251Z,15.30
2022-10-15T01:19:59.946Z,15.30
2022-10-15T01:22:51.335Z,15.20
2022-10-15T01:25:55.577Z,15.30
2022-10-15T01:28:48.990Z,15.20
2022-10-15T01:31:43.807Z,15.20
2022-10-15T01:37:05.802Z,15.10
2022-10-15T01:39:37.569Z,15.10
2022-10-15T01:42:13.485Z,15.00
2022-10-15T01:44:44.801Z,15.00
2022-10-15T01:47:21.547Z,15.00
2022-10-15T01:49:49.893Z,14.90
2022-10-15T01:55:04.098Z,14.90
2022-10-15T01:57:33.351Z,14.80
2022-10-15T02:00:02.022Z,14.80
2022-10-15T02:02:28.689Z,14.80
2022-10-15T02:04:55.330Z,14.80
2022-10-15T02:07:31.308Z,14.70
2022-10-15T02:10:08.158Z,14.70
2022-10-15T02:12:38.628Z,14.70
2022-10-15T02:15:14.154Z,14.70
2022-10-15T02:18:06.755Z,14.70
2022-10-15T02:20:41.868Z,14.70
2022-10-15T02:23:15.471Z,14.70
2022-10-15T02:25:43.788Z,14.70
2022-10-15T02:28:13.026Z,14.80
2022-10-15T02:30:42.524Z,14.70
2022-10-15T02:33:10.157Z,14.80
2022-10-15T02:35:38.119Z,14.80
2022-10-15T02:38:08.301Z,14.80
2022-10-15T02:40:37.325Z,14.90
2022-10-15T02:43:10.254Z,14.80
2022-10-15T02:45:37.618Z,14.80
2022-10-15T02:48:05.071Z,14.80
2022-10-15T02:50:31.817Z,14.80
2022-10-15T02:52:58.501Z,14.80
2022-10-15T02:55:25.266Z,14.80
2022-10-15T02:57:51.930Z,14.80
2022-10-15T03:00:18.802Z,14.80
2022-10-15T03:02:46.168Z,14.90
2022-10-15T03:05:13.034Z,14.90
2022-10-15T03:07:39.752Z,14.90
2022-10-15T03:10:07.280Z,14.90
2022-10-15T03:12:34.114Z,14.90
2022-10-15T03:15:00.771Z,14.90
2022-10-15T03:17:27.443Z,14.90
2022-10-15T03:19:54.102Z,14.90
2022-10-15T03:22:20.762Z,14.90
2022-10-15T03:24:47.481Z,15.00
2022-10-15T03:27:14.139Z,14.90
2022-10-15T03:29:40.785Z,15.00
2022-10-15T03:32:07.474Z,15.00
2022-10-15T03:34:34.114Z,15.00
2022-10-15T03:37:00.964Z,14.90
2022-10-15T03:39:27.633Z,14.90
2022-10-15T03:41:54.446Z,14.90
2022-10-15T03:44:21.143Z,15.00
2022-10-15T03:46:47.803Z,15.00
2022-10-15T03:49:14.588Z,15.00
2022-10-15T03:51:41.316Z,15.00
2022-10-15T03:54:08.058Z,15.00
2022-10-15T03:56:34.706Z,15.00
2022-10-15T03:59:01.389Z,15.10
2022-10-15T04:01:28.127Z,15.10
2022-10-15T04:03:55.103Z,15.10
2022-10-15T04:06:21.816Z,15.10
2022-10-15T04:08:48.527Z,15.10
2022-10-15T04:11:15.225Z,15.10
2022-10-15T04:13:41.967Z,15.10
2022-10-15T04:16:08.673Z,15.10
2022-10-15T04:18:35.551Z,15.10
2022-10-15T04:21:02.498Z,15.20
2022-10-15T04:23:29.155Z,15.20
2022-10-15T04:26:00.156Z,15.20
2022-10-15T04:28:27.246Z,15.20
2022-10-15T04:30:58.338Z,15.20
2022-10-15T04:33:25.841Z,15.20
2022-10-15T04:36:02.621Z,15.20
2022-10-15T04:38:29.597Z,15.10
2022-10-15T04:41:05.256Z,15.10
2022-10-15T04:43:32.058Z,15.00
2022-10-15T04:46:00.282Z,15.00
2022-10-15T04:48:31.918Z,15.00
2022-10-15T04:51:04.676Z,15.00
2022-10-15T04:53:31.884Z,14.90
2022-10-15T04:56:06.561Z,14.90
2022-10-15T04:58:34.298Z,14.90
2022-10-15T05:01:06.295Z,14.90
2022-10-15T05:03:36.509Z,15.00
2022-10-15T05:06:10.366Z,15.00
2022-10-15T05:08:38.319Z,15.10
2022-10-15T05:11:07.120Z,15.00
2022-10-15T05:13:34.612Z,15.10
2022-10-15T05:16:20.273Z,15.10
2022-10-15T05:18:49.436Z,15.10
2022-10-15T05:21:17.609Z,15.10
2022-10-15T05:23:45.515Z,15.10
2022-10-15T05:26:14.405Z,15.20
2022-10-15T05:28:41.999Z,15.20
2022-10-15T05:31:19.146Z,15.20
2022-10-15T05:33:47.075Z,15.20
2022-10-15T05:36:18.525Z,15.20
2022-10-15T05:38:51.151Z,15.20
2022-10-15T05:41:18.052Z,15.20
2022-10-15T05:43:47.686Z,15.20
2022-10-15T05:46:14.853Z,15.10
2022-10-15T05:48:41.607Z,15.10
2022-10-15T05:51:12.146Z,15.10
2022-10-15T05:53:40.414Z,15.10
2022-10-15T05:56:08.426Z,15.10
2022-10-15T05:58:37.419Z,15.10
2022-10-15T06:01:07.456Z,15.10
2022-10-15T06:03:35.017Z,15.00
2022-10-15T06:06:01.796Z,15.00
2022-10-15T06:08:30.089Z,15.00
2022-10-15T06:11:05.295Z,15.00
2022-10-15T06:13:35.182Z,14.90
2022-10-15T06:16:03.483Z,14.90
2022-10-15T06:18:30.218Z,14.90
2022-10-15T06:20:56.860Z,14.80
2022-10-15T06:23:24.421Z,14.70
2022-10-15T06:25:51.454Z,14.70
2022-10-15T06:28:18.288Z,14.60
2022-10-15T06:30:45.312Z,14.60
2022-10-15T06:35:44.527Z,14.50
2022-10-15T06:38:11.592Z,14.60
2022-10-15T06:40:39.023Z,14.50
2022-10-15T06:43:10.641Z,14.60
2022-10-15T06:45:40.113Z,14.60
2022-10-15T06:48:07.667Z,14.60
2022-10-15T06:50:36.354Z,14.60
2022-10-15T06:53:03.793Z,14.70
2022-10-15T06:55:30.634Z,14.70
2022-10-15T06:57:57.712Z,14.70
2022-10-15T07:00:25.347Z,14.80
2022-10-15T07:02:52.080Z,14.80
2022-10-15T07:05:19.052Z,14.90
2022-10-15T07:07:52.858Z,14.90
2022-10-15T07:12:51.832Z,15.00
2022-10-15T07:15:19.218Z,15.00
2022-10-15T07:17:56.570Z,15.10
2022-10-15T07:20:24.476Z,15.10
2022-10-15T07:22:55.825Z,15.20
2022-10-15T07:25:22.517Z,15.20
2022-10-15T07:27:49.166Z,15.30
2022-10-15T07:30:16.038Z,15.30
2022-10-15T07:32:45.578Z,15.40
2022-10-15T07:35:13.439Z,15.40
2022-10-15T07:37:40.930Z,15.50
2022-10-15T07:40:08.070Z,15.60
2022-10-15T07:42:35.214Z,15.60
2022-10-15T07:45:02.148Z,15.60
2022-10-15T07:47:29.004Z,15.70
2022-10-15T07:49:56.238Z,15.70
2022-10-15T07:52:23.300Z,15.70
2022-10-15T07:54:50.184Z,15.70
2022-10-15T07:57:17.834Z,15.70
2022-10-15T07:59:44.518Z,15.80
2022-10-15T08:02:18.267Z,15.80
2022-10-15T08:04:45.228Z,15.80
2022-10-15T08:07:12.175Z,15.80
2022-10-15T08:09:39.004Z,15.90
2022-10-15T08:12:07.002Z,15.90
2022-10-15T08:14:35.641Z,15.90
2022-10-15T08:17:04.103Z,15.90
2022-10-15T08:19:31.208Z,16.00
2022-10-15T08:21:58.290Z,16.00
2022-10-15T08:24:25.474Z,16.10
2022-10-15T08:26:52.301Z,16.20
2022-10-15T08:29:19.004Z,16.30
2022-10-15T08:31:45.977Z,16.30
2022-10-15T08:34:12.651Z,16.40
2022-10-15T08:36:39.505Z,16.40
2022-10-15T08:39:07.506Z,16.40
2022-10-15T08:41:43.024Z,16.40
2022-10-15T08:44:43.594Z,16.50
2022-10-15T08:47:26.145Z,16.50
2022-10-15T08:49:55.307Z,16.60
2022-10-15T08:52:35.937Z,16.70
2022-10-15T08:55:03.046Z,16.70
2022-10-15T08:57:46.821Z,16.80
2022-10-15T09:00:13.446Z,16.90
2022-10-15T09:02:50.065Z,17.00
2022-10-15T09:05:41.541Z,17.10
2022-10-15T09:08:23.563Z,17.20
2022-10-15T09:10:53.265Z,17.30
2022-10-15T09:13:27.980Z,17.30
2022-10-15T09:16:01.823Z,17.20
2022-10-15T09:18:33.590Z,17.30
2022-10-15T09:21:02.162Z,17.30
2022-10-15T09:23:32.224Z,17.30
2022-10-15T09:26:23.008Z,17.40
2022-10-15T09:29:00.143Z,17.50
2022-10-15T09:31:33.783Z,17.50
2022-10-15T09:34:11.722Z,17.40
2022-10-15T09:36:58.779Z,17.40
2022-10-15T09:39:43.506Z,17.40
2022-10-15T09:42:35.775Z,17.40
2022-10-15T09:45:24.041Z,17.50
2022-10-15T09:47:51.383Z,17.60
2022-10-15T09:52:55.978Z,17.90
2022-10-15T09:55:42.342Z,18.00
2022-10-15T09:58:16.511Z,18.00
2022-10-15T10:01:01.169Z,18.10
2022-10-15T10:03:31.230Z,18.10
2022-10-15T10:06:01.104Z,18.10
2022-10-15T10:08:33.805Z,18.10
2022-10-15T10:11:07.415Z,18.10
2022-10-15T10:13:50.989Z,18.10
2022-10-15T10:16:19.435Z,18.10
2022-10-15T10:19:06.555Z,18.20
2022-10-15T10:21:35.987Z,18.20
2022-10-15T10:24:34.465Z,18.20
2022-10-15T10:29:41.129Z,18.30
2022-10-15T10:32:17.644Z,18.40
2022-10-15T10:34:48.686Z,18.40
2022-10-15T10:37:17.065Z,18.50
2022-10-15T10:39:45.811Z,18.50
2022-10-15T10:42:19.928Z,18.50
2022-10-15T10:44:47.039Z,18.50
2022-10-15T10:47:22.482Z,18.50
2022-10-15T10:49:50.407Z,18.60
2022-10-15T10:52:23.150Z,18.70
2022-10-15T10:55:04.686Z,18.60
2022-10-15T10:57:54.186Z,18.60
2022-10-15T11:00:44.625Z,18.60
2022-10-15T11:03:36.860Z,18.70
2022-10-15T11:06:06.631Z,18.70
2022-10-15T11:09:08.476Z,18.70
2022-10-15T11:12:12.254Z,18.90
2022-10-15T11:15:05.757Z,19.00
2022-10-15T11:18:09.461Z,19.10
2022-10-15T11:20:57.714Z,19.10
2022-10-15T11:23:47.495Z,19.20
2022-10-15T11:26:52.052Z,19.30
2022-10-15T11:29:49.462Z,19.40
2022-10-15T11:32:54.658Z,19.50
2022-10-15T11:35:52.949Z,19.50
2022-10-15T11:38:32.630Z,19.60
2022-10-15T11:41:08.336Z,19.70
2022-10-15T11:43:55.386Z,19.70
2022-10-15T11:46:34.206Z,19.70
2022-10-15T11:49:03.911Z,19.70
2022-10-15T11:51:52.145Z,19.70
2022-10-15T11:54:25.933Z,19.80
2022-10-15T11:56:56.052Z,19.80
2022-10-15T12:00:01.565Z,19.80
2022-10-15T12:02:39.201Z,19.80
2022-10-15T12:05:21.184Z,19.80
2022-10-15T12:07:49.964Z,19.80
2022-10-15T12:10:31.039Z,19.80
2022-10-15T12:13:25.907Z,19.80
2022-10-15T12:16:03.128Z,19.90
2022-10-15T12:18:44.906Z,20.00
2022-10-15T12:22:00.693Z,20.20
2022-10-15T12:24:45.308Z,20.20
2022-10-15T12:27:30.467Z,20.20
2022-10-15T12:30:00.200Z,20.40
2022-10-15T12:32:29.482Z,20.50
2022-10-15T12:34:58.938Z,20.50
2022-10-15T12:37:28.661Z,20.60
2022-10-15T12:40:19.209Z,20.50
2022-10-15T12:42:51.607Z,20.50
2022-10-15T12:45:25.411Z,20.50
2022-10-15T12:48:04.109Z,20.40
2022-10-15T12:50:33.289Z,20.50
2022-10-15T12:53:02.975Z,20.40
2022-10-15T12:55:38.676Z,20.50
2022-10-15T12:58:32.416Z,20.60
2022-10-15T13:01:13.565Z,20.70
2022-10-15T13:03:49.420Z,20.90
2022-10-15T13:06:24.917Z,20.90
2022-10-15T13:09:10.174Z,21.00
2022-10-15T13:11:42.844Z,21.00
2022-10-15T13:14:12.330Z,21.10
2022-10-15T13:16:47.334Z,21.10
2022-10-15T13:19:25.715Z,21.20
2022-10-15T13:21:58.019Z,21.10
2022-10-15T13:24:28.473Z,21.10
2022-10-15T13:26:56.890Z,21.10
2022-10-15T13:29:25.930Z,21.20
2022-10-15T13:31:56.731Z,21.30
2022-10-15T13:34:36.474Z,21.40
2022-10-15T13:37:04.671Z,21.40
2022-10-15T13:39:38.864Z,21.40
2022-10-15T13:42:08.583Z,21.40
2022-10-15T13:44:35.971Z,21.40
2022-10-15T13:47:03.250Z,21.40
2022-10-15T13:49:30.116Z,21.50
2022-10-15T13:51:56.863Z,21.50
2022-10-15T13:54:28.686Z,21.40
2022-10-15T13:56:58.863Z,21.30
2022-10-15T13:59:28.251Z,21.30
2022-10-15T14:02:04.193Z,21.20
2022-10-15T14:04:32.676Z,21.20
2022-10-15T14:07:02.806Z,21.10
2022-10-15T14:09:33.051Z,21.10
2022-10-15T14:12:02.341Z,21.10
2022-10-15T14:14:31.878Z,21.10
2022-10-15T14:17:00.858Z,21.30
2022-10-15T14:19:30.261Z,21.50
2022-10-15T14:21:59.074Z,21.50
2022-10-15T14:24:33.387Z,21.50
2022-10-15T14:27:08.213Z,21.40
2022-10-15T14:29:46.921Z,21.40
2022-10-15T14:32:42.762Z,21.30
2022-10-15T14:35:29.383Z,21.20
2022-10-15T14:38:06.471Z,21.20
2022-10-15T14:40:33.229Z,21.20
2022-10-15T14:43:14.113Z,21.20
2022-10-15T14:46:03.729Z,21.10
2022-10-15T14:48:36.505Z,21.10
2022-10-15T14:51:14.036Z,21.10
2022-10-15T14:53:46.817Z,21.00
2022-10-15T14:56:18.893Z,21.00
2022-10-15T14:58:53.751Z,21.00
2022-10-15T15:01:21.651Z,21.00
2022-10-15T15:03:53.659Z,21.00
2022-10-15T15:06:21.224Z,21.00
2022-10-15T15:08:48.149Z,20.90
2022-10-15T15:11:19.675Z,20.90
2022-10-15T15:13:47.760Z,20.80
2022-10-15T15:16:16.712Z,20.80
2022-10-15T15:18:44.121Z,20.70
2022-10-15T15:21:17.828Z,20.60
2022-10-15T15:23:44.967Z,20.30
2022-10-15T15:26:11.767Z,19.90
2022-10-15T15:28:38.671Z,19.40
2022-10-15T15:31:14.421Z,19.20
2022-10-15T15:33:41.672Z,19.00
2022-10-15T15:36:19.065Z,18.90
2022-10-15T15:38:50.747Z,18.80
2022-10-15T15:41:22.660Z,18.70
2022-10-15T15:43:50.506Z,18.60
2022-10-15T15:46:17.342Z,18.50
2022-10-15T15:48:44.461Z,18.40
2022-10-15T15:51:28.261Z,18.30
2022-10-15T15:53:56.097Z,18.20
2022-10-15T15:56:23.287Z,18.10
2022-10-15T15:58:50.983Z,18.10
2022-10-15T16:01:19.658Z,18.00
2022-10-15T16:03:46.953Z,18.00
2022-10-15T16:06:14.011Z,17.90
2022-10-15T16:08:40.812Z,17.90
2022-10-15T16:11:07.690Z,17.90
2022-10-15T16:13:34.586Z,17.90
2022-10-15T16:16:01.388Z,17.80
2022-10-15T16:18:28.351Z,17.80
2022-10-15T16:20:55.653Z,17.80
2022-10-15T16:23:22.593Z,17.80
2022-10-15T16:25:49.359Z,17.80
2022-10-15T16:28:16.292Z,17.80
2022-10-15T16:30:42.970Z,17.80
2022-10-15T16:33:10.523Z,17.80
2022-10-15T16:35:37.248Z,17.80
2022-10-15T16:38:04.343Z,17.80
2022-10-15T16:40:31.088Z,17.80
2022-10-15T16:42:57.803Z,17.80
2022-10-15T16:45:24.561Z,17.80
2022-10-15T16:47:51.807Z,17.70
2022-10-15T16:50:18.607Z,17.70
2022-10-15T16:52:45.409Z,17.70
2022-10-15T16:55:12.167Z,17.70
2022-10-15T16:57:39.584Z,17.70
2022-10-15T17:00:06.916Z,17.70
2022-10-15T17:02:33.979Z,17.70
2022-10-15T17:05:00.767Z,17.70
2022-10-15T17:07:27.819Z,17.60
2022-10-15T17:09:54.932Z,17.60
2022-10-15T17:12:21.895Z,17.60
2022-10-15T17:14:53.102Z,17.60
2022-10-15T17:17:20.001Z,17.60
2022-10-15T17:19:46.707Z,17.60
2022-10-15T17:22:13.448Z,17.60
2022-10-15T17:24:40.202Z,17.60
2022-10-15T17:27:06.991Z,17.50
2022-10-15T17:29:34.010Z,17.50
2022-10-15T17:32:01.865Z,17.50
2022-10-15T17:34:28.628Z,17.50
2022-10-15T17:36:56.286Z,17.50
2022-10-15T17:39:23.441Z,17.40
2022-10-15T17:41:51.955Z,17.40
2022-10-15T17:44:19.061Z,17.40
2022-10-15T17:46:46.020Z,17.30
2022-10-15T17:49:18.054Z,17.30
2022-10-15T17:51:45.966Z,17.30
2022-10-15T17:54:12.963Z,17.20
2022-10-15T17:56:39.990Z,17.20
2022-10-15T17:59:10.527Z,17.10
2022-10-15T18:01:57.266Z,17.10
2022-10-15T18:04:24.917Z,17.00
2022-10-15T18:06:52.172Z,16.90
2022-10-15T18:09:18.972Z,16.90
2022-10-15T18:11:46.502Z,16.80
2022-10-15T18:14:13.367Z,16.80
2022-10-15T18:16:40.073Z,16.70
2022-10-15T18:19:09.968Z,16.70
2022-10-15T18:21:36.779Z,16.70
2022-10-15T18:24:03.715Z,16.60
2022-10-15T18:26:30.621Z,16.60
2022-10-15T18:28:57.495Z,16.60
2022-10-15T18:31:26.124Z,16.50
2022-10-15T18:33:55.990Z,16.50
2022-10-15T18:36:31.331Z,16.50
2022-10-15T18:38:58.777Z,16.50
2022-10-15T18:41:33.435Z,16.60
2022-10-15T18:44:02.506Z,16.60
2022-10-15T18:46:31.127Z,16.60
2022-10-15T18:48:58.506Z,16.60
2022-10-15T18:51:25.540Z,16.70
2022-10-15T18:53:53.337Z,16.70
2022-10-15T18:56:20.698Z,16.70
2022-10-15T18:58:47.825Z,16.70
2022-10-15T19:01:24.858Z,16.70
2022-10-15T19:03:52.748Z,16.70
2022-10-15T19:06:21.427Z,16.70
2022-10-15T19:08:48.663Z,16.60
2022-10-15T19:11:16.441Z,16.60
2022-10-15T19:13:43.253Z,16.50
2022-10-15T19:16:10.495Z,16.50
2022-10-15T19:18:37.322Z,16.50
2022-10-15T19:21:05.232Z,16.40
2022-10-15T19:23:32.629Z,16.40
2022-10-15T19:25:59.395Z,16.40
2022-10-15T19:28:26.760Z,16.30
2022-10-15T19:30:58.164Z,16.30
2022-10-15T19:33:26.738Z,16.30
2022-10-15T19:35:53.761Z,16.30
2022-10-15T19:38:20.505Z,16.30
2022-10-15T19:40:49.487Z,16.20
2022-10-15T19:43:18.772Z,16.20
2022-10-15T19:45:46.533Z,16.20
2022-10-15T19:48:16.137Z,16.20
2022-10-15T19:50:44.767Z,16.10
2022-10-15T19:53:16.526Z,16.10
2022-10-15T19:55:44.500Z,16.10
2022-10-15T19:58:11.607Z,16.10
2022-10-15T20:00:38.326Z,16.10
2022-10-15T20:03:05.126Z,16.10
2022-10-15T20:05:31.846Z,16.10
2022-10-15T20:07:58.519Z,16.10
2022-10-15T20:10:26.673Z,16.10
2022-10-15T20:12:53.731Z,16.10
2022-10-15T20:15:20.637Z,16.10
2022-10-15T20:17:48.060Z,16.10
2022-10-15T20:20:15.137Z,16.10
2022-10-15T20:22:42.187Z,16.10
2022-10-15T20:25:09.557Z,16.20
2022-10-15T20:27:36.342Z,16.20
2022-10-15T20:30:04.359Z,16.10
2022-10-15T20:32:34.830Z,16.10
2022-10-15T20:35:04.122Z,16.10
2022-10-15T20:37:30.947Z,16.10
2022-10-15T20:42:24.529Z,16.10
2022-10-15T20:44:52.026Z,16.10
2022-10-15T20:47:19.090Z,16.10
2022-10-15T20:49:50.031Z,16.10
2022-10-15T20:52:16.782Z,16.10
2022-10-15T20:54:43.625Z,16.10
2022-10-15T20:57:10.972Z,16.00
2022-10-15T20:59:37.676Z,16.00
2022-10-15T21:02:04.583Z,16.10
2022-10-15T21:04:31.286Z,16.10
2022-10-15T21:06:58.187Z,16.10
2022-10-15T21:09:25.072Z,16.10
2022-10-15T21:11:51.733Z,16.10
2022-10-15T21:14:18.460Z,16.10
2022-10-15T21:16:45.183Z,16.10
2022-10-15T21:19:11.895Z,16.10
2022-10-15T21:21:39.245Z,16.10
2022-10-15T21:24:06.171Z,16.10
2022-10-15T21:26:33.067Z,16.10
2022-10-15T21:29:00.414Z,16.10
2022-10-15T21:31:27.431Z,16.10
2022-10-15T21:33:57.687Z,16.10
2022-10-15T21:36:28.751Z,16.20
2022-10-15T21:38:58.081Z,16.10
2022-10-15T21:41:25.860Z,16.10
2022-10-15T21:43:52.924Z,16.10
2022-10-15T21:46:19.882Z,16.10
2022-10-15T21:48:46.679Z,16.10
2022-10-15T21:51:16.334Z,16.00
2022-10-15T21:53:43.293Z,16.00
2022-10-15T21:56:10.472Z,16.00
2022-10-15T21:58:38.560Z,16.00
2022-10-15T22:01:22.697Z,16.00
2022-10-15T22:03:51.164Z,16.00
2022-10-15T22:06:19.023Z,16.00
2022-10-15T22:08:46.569Z,16.00
2022-10-15T22:14:00.842Z,16.00
2022-10-15T22:16:28.610Z,15.90
2022-10-15T22:18:56.266Z,16.00
2022-10-15T22:21:26.010Z,15.90
2022-10-15T22:24:01.729Z,16.00
2022-10-15T22:26:31.463Z,15.90
2022-10-15T22:29:00.647Z,15.90
2022-10-15T22:31:28.400Z,15.90
2022-10-15T22:33:55.382Z,15.90
2022-10-15T22:36:26.817Z,15.90
2022-10-15T22:41:32.336Z,16.00
2022-10-15T22:43:59.086Z,16.00
2022-10-15T22:46:26.705Z,16.00
2022-10-15T22:48:53.679Z,16.00
2022-10-15T22:51:21.055Z,16.00
2022-10-15T22:53:48.055Z,16.00
2022-10-15T22:56:17.835Z,16.00
2022-10-15T22:58:45.701Z,15.90
2022-10-15T23:01:17.105Z,16.00
2022-10-15T23:03:47.519Z,16.00
2022-10-15T23:06:14.632Z,16.00
2022-10-15T23:08:42.248Z,15.90
2022-10-15T23:11:21.190Z,15.90
2022-10-15T23:13:51.888Z,15.90
2022-10-15T23:16:21.613Z,15.90
2022-10-15T23:19:00.216Z,15.90
2022-10-15T23:21:44.763Z,15.90
2022-10-15T23:24:12.126Z,15.90
2022-10-15T23:26:39.881Z,15.90
2022-10-15T23:29:08.579Z,15.90
2022-10-15T23:31:36.153Z,15.80
2022-10-15T23:34:04.624Z,15.80
2022-10-15T23:36:32.838Z,15.80
2022-10-15T23:39:02.068Z,15.80
2022-10-15T23:41:29.914Z,15.80
2022-10-15T23:43:56.612Z,15.80
2022-10-15T23:46:23.958Z,15.80
2022-10-15T23:48:50.722Z,15.80
2022-10-15T23:51:22.970Z,15.80
2022-10-15T23:53:50.033Z,15.70
2022-10-15T23:56:18.024Z,15.70
2022-10-15T23:58:49.230Z,15.70
